createdAt,value
2022-10-08T00:01:43.594Z,12.00
2022-10-08T00:04:12.915Z,8.00
2022-10-08T00:06:41.185Z,14.00
2022-10-08T00:09:09.404Z,9.00
2022-10-08T00:11:39.870Z,9.50
2022-10-08T00:14:09.460Z,9.00
2022-10-08T00:16:40.003Z,9.50
2022-10-08T00:19:11.957Z,12.00
2022-10-08T00:21:42.196Z,9.00
2022-10-08T00:24:14.574Z,6.50
2022-10-08T00:26:44.484Z,12.00
2022-10-08T00:29:15.576Z,10.50
2022-10-08T00:31:46.033Z,9.00
2022-10-08T00:34:23.686Z,12.00
2022-10-08T00:36:54.076Z,9.00
2022-10-08T00:39:24.376Z,11.00
2022-10-08T00:41:54.547Z,9.00
2022-10-08T00:44:47.998Z,8.00
2022-10-08T00:47:22.338Z,9.00
2022-10-08T00:49:51.771Z,11.00
2022-10-08T00:52:20.141Z,7.00
2022-10-08T00:54:51.900Z,10.00
2022-10-08T00:57:21.677Z,11.00
2022-10-08T00:59:50.019Z,8.50
2022-10-08T01:02:19.709Z,8.50
2022-10-08T01:04:48.322Z,10.00
2022-10-08T01:07:33.304Z,6.00
2022-10-08T01:10:28.794Z,10.00
2022-10-08T01:13:25.390Z,12.00
2022-10-08T01:16:02.865Z,10.00
2022-10-08T01:18:42.118Z,12.33
2022-10-08T01:21:43.652Z,8.00
2022-10-08T01:24:24.463Z,8.25
2022-10-08T01:27:36.148Z,9.00
2022-10-08T01:30:07.965Z,10.33
2022-10-08T01:32:43.383Z,12.00
2022-10-08T01:35:15.867Z,10.00
2022-10-08T01:37:45.470Z,11.67
2022-10-08T01:40:21.614Z,9.00
2022-10-08T01:42:52.128Z,8.67
2022-10-08T01:45:25.483Z,12.50
2022-10-08T01:47:55.170Z,12.00
2022-10-08T01:50:29.443Z,10.00
2022-10-08T01:53:12.421Z,11.00
2022-10-08T01:55:43.258Z,9.00
2022-10-08T01:58:18.571Z,6.00
2022-10-08T02:00:48.690Z,12.00
2022-10-08T02:03:17.065Z,8.00
2022-10-08T02:05:50.638Z,8.00
2022-10-08T02:08:19.071Z,7.50
2022-10-08T02:10:47.155Z,8.75
2022-10-08T02:13:15.829Z,9.75
2022-10-08T02:15:51.652Z,7.00
2022-10-08T02:18:26.753Z,7.67
2022-10-08T02:21:00.180Z,10.50
2022-10-08T02:24:13.710Z,10.33
2022-10-08T02:26:47.641Z,7.00
2022-10-08T02:29:20.794Z,7.00
2022-10-08T02:31:58.563Z,8.00
2022-10-08T02:34:47.787Z,10.00
2022-10-08T02:37:21.926Z,9.25
2022-10-08T02:39:55.683Z,8.00
2022-10-08T02:42:25.054Z,9.00
2022-10-08T02:44:57.929Z,10.00
2022-10-08T02:47:29.455Z,9.50
2022-10-08T02:50:02.921Z,7.00
2022-10-08T02:52:37.228Z,11.00
2022-10-08T02:55:29.760Z,8.33
2022-10-08T02:58:09.772Z,8.00
2022-10-08T03:00:44.517Z,9.00
2022-10-08T03:03:17.108Z,10.00
2022-10-08T03:05:46.251Z,8.67
2022-10-08T03:08:15.380Z,10.50
2022-10-08T03:10:44.104Z,9.50
2022-10-08T03:13:13.275Z,10.33
2022-10-08T03:15:41.839Z,10.00
2022-10-08T03:18:11.931Z,11.00
2022-10-08T03:20:45.189Z,10.50
2022-10-08T03:23:16.314Z,8.00
2022-10-08T03:25:45.138Z,9.67
2022-10-08T03:28:13.354Z,8.00
2022-10-08T03:30:41.679Z,9.00
2022-10-08T03:33:09.953Z,9.00
2022-10-08T03:35:38.112Z,11.50
2022-10-08T03:38:06.228Z,9.00
2022-10-08T03:40:34.438Z,8.00
2022-10-08T03:43:02.644Z,7.00
2022-10-08T03:45:30.692Z,11.00
2022-10-08T03:47:58.907Z,10.50
2022-10-08T03:50:27.485Z,11.00
2022-10-08T03:52:55.701Z,9.00
2022-10-08T03:55:23.798Z,9.00
2022-10-08T03:57:53.039Z,6.00
2022-10-08T04:00:21.169Z,9.00
2022-10-08T04:02:51.163Z,7.50
2022-10-08T04:05:19.796Z,10.33
2022-10-08T04:07:47.983Z,13.00
2022-10-08T04:10:16.318Z,9.33
2022-10-08T04:12:44.685Z,5.33
2022-10-08T04:15:13.141Z,7.00
2022-10-08T04:17:42.095Z,7.00
2022-10-08T04:20:10.586Z,9.50
2022-10-08T04:22:38.937Z,9.00
2022-10-08T04:25:07.355Z,10.00
2022-10-08T04:27:35.604Z,7.00
2022-10-08T04:30:04.844Z,8.00
2022-10-08T04:32:33.145Z,9.00
2022-10-08T04:35:01.381Z,8.00
2022-10-08T04:37:29.564Z,9.00
2022-10-08T04:39:57.831Z,7.00
2022-10-08T04:42:26.043Z,7.00
2022-10-08T04:44:54.278Z,8.00
2022-10-08T04:47:22.466Z,9.00
2022-10-08T04:49:50.578Z,8.00
2022-10-08T04:52:20.703Z,13.00
2022-10-08T04:54:49.205Z,9.00
2022-10-08T04:57:17.291Z,10.00
2022-10-08T05:00:13.057Z,10.00
2022-10-08T05:02:35.175Z,10.00
2022-10-08T05:05:03.493Z,10.50
2022-10-08T05:07:31.660Z,6.00
2022-10-08T05:10:00.006Z,10.50
2022-10-08T05:12:28.216Z,12.00
2022-10-08T05:14:56.423Z,12.33
2022-10-08T05:17:24.611Z,12.50
2022-10-08T05:19:53.157Z,8.67
2022-10-08T05:22:21.434Z,13.67
2022-10-08T05:24:49.648Z,8.67
2022-10-08T05:27:17.845Z,8.67
2022-10-08T05:29:46.065Z,13.00
2022-10-08T05:32:14.268Z,14.00
2022-10-08T05:34:42.316Z,10.67
2022-10-08T05:37:10.675Z,15.00
2022-10-08T05:39:38.830Z,12.50
2022-10-08T05:42:07.066Z,19.00
2022-10-08T05:44:37.760Z,17.00
2022-10-08T05:47:06.145Z,15.00
2022-10-08T05:49:34.340Z,15.00
2022-10-08T05:52:02.637Z,13.25
2022-10-08T05:54:31.283Z,18.50
2022-10-08T05:56:59.425Z,14.67
2022-10-08T05:59:27.666Z,16.00
2022-10-08T06:01:55.866Z,12.00
2022-10-08T06:04:24.755Z,22.00
2022-10-08T06:06:53.105Z,19.50
2022-10-08T06:09:22.316Z,15.67
2022-10-08T06:11:50.734Z,17.50
2022-10-08T06:14:20.675Z,15.00
2022-10-08T06:16:49.065Z,16.00
2022-10-08T06:19:17.363Z,16.00
2022-10-08T06:21:45.549Z,13.50
2022-10-08T06:24:14.185Z,13.50
2022-10-08T06:26:44.214Z,16.67
2022-10-08T06:29:16.930Z,17.00
2022-10-08T06:31:45.971Z,14.50
2022-10-08T06:34:14.676Z,13.50
2022-10-08T06:36:42.904Z,12.00
2022-10-08T06:39:13.445Z,13.50
2022-10-08T06:41:41.951Z,14.00
2022-10-08T06:44:13.446Z,11.67
2022-10-08T06:46:42.536Z,10.50
2022-10-08T06:49:11.585Z,12.50
2022-10-08T06:51:39.888Z,12.00
2022-10-08T06:54:08.807Z,13.50
2022-10-08T06:56:38.496Z,11.00
2022-10-08T06:59:08.188Z,14.33
2022-10-08T07:01:36.750Z,12.00
2022-10-08T07:04:07.094Z,10.50
2022-10-08T07:06:35.838Z,14.50
2022-10-08T07:09:05.399Z,14.00
2022-10-08T07:11:35.105Z,15.00
2022-10-08T07:14:03.595Z,9.00
2022-10-08T07:16:32.370Z,13.00
2022-10-08T07:19:00.626Z,16.00
2022-10-08T07:21:29.515Z,8.00
2022-10-08T07:24:00.052Z,11.33
2022-10-08T07:26:32.575Z,10.50
2022-10-08T07:29:06.765Z,16.00
2022-10-08T07:31:37.152Z,13.00
2022-10-08T07:34:08.434Z,16.00
2022-10-08T07:36:36.890Z,10.00
2022-10-08T07:39:11.442Z,14.50
2022-10-08T07:41:39.752Z,19.33
2022-10-08T07:44:12.823Z,7.00
2022-10-08T07:46:46.452Z,12.00
2022-10-08T07:49:15.351Z,11.00
2022-10-08T07:51:43.984Z,13.00
2022-10-08T07:54:15.348Z,14.00
2022-10-08T07:56:43.817Z,10.67
2022-10-08T07:59:15.275Z,11.00
2022-10-08T08:01:44.358Z,10.50
2022-10-08T08:04:12.815Z,8.50
2022-10-08T08:06:43.626Z,17.00
2022-10-08T08:09:12.072Z,11.67
2022-10-08T08:11:41.044Z,7.50
2022-10-08T08:14:09.230Z,11.00
2022-10-08T08:16:37.454Z,14.33
2022-10-08T08:19:05.912Z,8.00
2022-10-08T08:21:39.355Z,14.25
2022-10-08T08:24:12.880Z,12.00
2022-10-08T08:26:42.928Z,10.00
2022-10-08T08:29:16.697Z,8.00
2022-10-08T08:31:47.386Z,5.00
2022-10-08T08:34:21.302Z,24.33
2022-10-08T08:36:51.386Z,15.00
2022-10-08T08:39:28.838Z,13.00
2022-10-08T08:42:20.599Z,15.50
2022-10-08T08:44:54.176Z,15.50
2022-10-08T08:47:42.186Z,12.00
2022-10-08T08:50:26.331Z,10.00
2022-10-08T08:52:55.010Z,9.00
2022-10-08T08:55:35.322Z,8.33
2022-10-08T08:58:11.011Z,8.50
2022-10-08T09:00:42.835Z,7.00
2022-10-08T09:03:23.234Z,8.00
2022-10-08T09:05:54.196Z,9.50
2022-10-08T09:08:36.403Z,8.67
2022-10-08T09:11:05.621Z,7.50
2022-10-08T09:13:41.296Z,6.00
2022-10-08T09:16:14.379Z,9.67
2022-10-08T09:18:48.757Z,4.50
2022-10-08T09:21:18.029Z,7.00
2022-10-08T09:23:47.217Z,6.67
2022-10-08T09:26:21.943Z,9.00
2022-10-08T09:28:55.666Z,7.00
2022-10-08T09:31:33.121Z,9.00
2022-10-08T09:34:10.279Z,7.50
2022-10-08T09:36:41.618Z,7.00
2022-10-08T09:39:34.063Z,11.00
2022-10-08T09:42:08.510Z,11.50
2022-10-08T09:44:51.714Z,13.00
2022-10-08T09:47:22.268Z,10.00
2022-10-08T09:50:16.665Z,9.50
2022-10-08T09:52:47.421Z,8.67
2022-10-08T09:55:15.760Z,11.00
2022-10-08T09:57:46.650Z,7.00
2022-10-08T10:00:25.393Z,12.00
2022-10-08T10:02:55.762Z,9.75
2022-10-08T10:05:32.032Z,10.00
2022-10-08T10:08:00.352Z,10.33
2022-10-08T10:10:35.801Z,10.00
2022-10-08T10:13:16.680Z,11.50
2022-10-08T10:15:51.517Z,14.67
2022-10-08T10:18:29.723Z,11.33
2022-10-08T10:21:01.861Z,13.00
2022-10-08T10:23:39.950Z,11.00
2022-10-08T10:26:12.152Z,19.67
2022-10-08T10:28:43.749Z,17.50
2022-10-08T10:31:26.339Z,11.00
2022-10-08T10:33:56.162Z,10.50
2022-10-08T10:36:27.458Z,11.50
2022-10-08T10:39:12.509Z,9.50
2022-10-08T10:41:47.199Z,18.00
2022-10-08T10:44:20.859Z,12.00
2022-10-08T10:46:56.764Z,8.50
2022-10-08T10:49:35.466Z,11.00
2022-10-08T10:52:22.244Z,13.00
2022-10-08T10:55:27.955Z,11.67
2022-10-08T10:58:12.471Z,6.33
2022-10-08T11:00:59.660Z,16.00
2022-10-08T11:03:47.724Z,11.25
2022-10-08T11:06:43.095Z,11.00
2022-10-08T11:09:41.647Z,11.75
2022-10-08T11:12:28.845Z,8.00
2022-10-08T11:15:09.101Z,16.50
2022-10-08T11:18:06.378Z,6.00
2022-10-08T11:20:39.935Z,11.00
2022-10-08T11:23:20.320Z,9.75
2022-10-08T11:26:21.989Z,9.00
2022-10-08T11:29:09.858Z,9.00
2022-10-08T11:31:44.187Z,13.00
2022-10-08T11:34:25.166Z,8.00
2022-10-08T11:37:36.938Z,7.00
2022-10-08T11:40:23.668Z,9.00
2022-10-08T11:43:10.391Z,10.00
2022-10-08T11:45:40.425Z,11.00
2022-10-08T11:48:35.462Z,9.00
2022-10-08T11:51:19.421Z,7.25
2022-10-08T11:54:03.742Z,8.67
2022-10-08T11:56:37.202Z,2.50
2022-10-08T11:59:27.554Z,7.67
2022-10-08T12:01:58.521Z,9.00
2022-10-08T12:04:37.155Z,9.00
2022-10-08T12:07:28.691Z,11.00
2022-10-08T12:10:06.132Z,7.67
2022-10-08T12:12:49.749Z,4.67
2022-10-08T12:15:24.618Z,13.25
2022-10-08T12:17:53.625Z,6.00
2022-10-08T12:20:23.119Z,7.33
2022-10-08T12:23:01.778Z,8.50
2022-10-08T12:26:03.005Z,5.50
2022-10-08T12:28:35.763Z,8.00
2022-10-08T12:31:21.908Z,11.00
2022-10-08T12:34:24.119Z,8.00
2022-10-08T12:36:55.289Z,7.00
2022-10-08T12:39:36.485Z,7.00
2022-10-08T12:42:13.597Z,7.50
2022-10-08T12:44:50.855Z,7.00
2022-10-08T12:47:25.414Z,10.00
2022-10-08T12:50:31.115Z,9.00
2022-10-08T12:53:03.520Z,10.50
2022-10-08T12:55:38.321Z,12.00
2022-10-08T12:58:06.626Z,5.25
2022-10-08T13:00:35.616Z,6.50
2022-10-08T13:03:14.588Z,6.50
2022-10-08T13:05:47.840Z,10.50
2022-10-08T13:08:27.949Z,9.50
2022-10-08T13:10:57.678Z,10.00
2022-10-08T13:13:42.445Z,8.00
2022-10-08T13:16:10.743Z,10.50
2022-10-08T13:18:42.268Z,8.00
2022-10-08T13:21:31.716Z,5.75
2022-10-08T13:24:01.382Z,7.00
2022-10-08T13:26:47.444Z,8.00
2022-10-08T13:29:21.861Z,6.50
2022-10-08T13:32:05.167Z,9.50
2022-10-08T13:34:43.000Z,10.00
2022-10-08T13:37:11.087Z,5.00
2022-10-08T13:39:42.354Z,8.00
2022-10-08T13:42:17.173Z,9.00
2022-10-08T13:44:45.736Z,6.33
2022-10-08T13:47:20.313Z,7.50
2022-10-08T13:49:48.846Z,9.50
2022-10-08T13:52:22.951Z,8.00
2022-10-08T13:54:54.749Z,8.00
2022-10-08T13:57:22.963Z,10.00
2022-10-08T13:59:51.286Z,4.50
2022-10-08T14:02:19.496Z,7.00
2022-10-08T14:04:47.809Z,11.00
2022-10-08T14:07:29.159Z,7.00
2022-10-08T14:10:00.403Z,7.00
2022-10-08T14:12:32.562Z,9.00
2022-10-08T14:15:01.273Z,5.00
2022-10-08T14:17:29.480Z,5.00
2022-10-08T14:19:57.681Z,9.00
2022-10-08T14:22:25.883Z,9.00
2022-10-08T14:24:54.341Z,10.50
2022-10-08T14:27:22.503Z,9.00
2022-10-08T14:29:50.681Z,8.50
2022-10-08T14:32:18.931Z,7.67
2022-10-08T14:34:47.143Z,8.67
2022-10-08T14:37:15.366Z,8.67
2022-10-08T14:39:43.512Z,11.00
2022-10-08T14:42:11.863Z,9.00
2022-10-08T14:44:40.082Z,9.00
2022-10-08T14:47:08.286Z,7.67
2022-10-08T14:49:36.471Z,10.67
2022-10-08T14:52:04.859Z,10.00
2022-10-08T14:54:33.061Z,9.00
2022-10-08T14:57:01.239Z,11.00
2022-10-08T14:59:29.458Z,10.67
2022-10-08T15:01:57.747Z,14.00
2022-10-08T15:04:26.028Z,10.00
2022-10-08T15:06:54.293Z,4.33
2022-10-08T15:09:22.858Z,7.33
2022-10-08T15:11:51.228Z,9.00
2022-10-08T15:14:19.818Z,8.50
2022-10-08T15:16:48.210Z,7.33
2022-10-08T15:19:19.841Z,10.00
2022-10-08T15:21:51.895Z,11.00
2022-10-08T15:24:20.196Z,8.00
2022-10-08T15:26:48.375Z,10.00
2022-10-08T15:29:16.890Z,8.00
2022-10-08T15:31:45.171Z,9.00
2022-10-08T15:34:17.453Z,12.50
2022-10-08T15:36:45.761Z,9.00
2022-10-08T15:39:16.377Z,9.50
2022-10-08T15:41:47.084Z,6.00
2022-10-08T15:44:26.497Z,7.50
2022-10-08T15:46:59.789Z,9.00
2022-10-08T15:49:32.051Z,7.00
2022-10-08T15:52:00.788Z,8.00
2022-10-08T15:54:29.100Z,8.00
2022-10-08T15:56:57.466Z,10.00
2022-10-08T15:59:25.698Z,9.00
2022-10-08T16:01:54.108Z,9.00
2022-10-08T16:04:22.295Z,7.00
2022-10-08T16:06:50.827Z,7.00
2022-10-08T16:09:20.650Z,4.00
2022-10-08T16:11:49.877Z,8.50
2022-10-08T16:14:23.326Z,10.67
2022-10-08T16:16:52.313Z,4.00
2022-10-08T16:19:24.482Z,7.50
2022-10-08T16:21:55.618Z,8.50
2022-10-08T16:24:24.001Z,6.00
2022-10-08T16:26:52.439Z,5.00
2022-10-08T16:29:20.876Z,5.00
2022-10-08T16:31:49.170Z,6.00
2022-10-08T16:34:20.358Z,7.00
2022-10-08T16:36:49.121Z,6.33
2022-10-08T16:39:21.088Z,7.00
2022-10-08T16:41:49.746Z,9.00
2022-10-08T16:44:19.842Z,7.00
2022-10-08T16:46:53.177Z,7.00
2022-10-08T16:49:26.778Z,8.00
2022-10-08T16:52:04.989Z,7.00
2022-10-08T16:54:33.500Z,8.67
2022-10-08T16:57:02.415Z,6.00
2022-10-08T16:59:30.865Z,8.33
2022-10-08T17:02:00.708Z,82.00
2022-10-08T17:04:29.695Z,60.00
2022-10-08T17:06:58.147Z,40.00
2022-10-08T17:09:26.395Z,36.00
2022-10-08T17:11:54.955Z,28.00
2022-10-08T17:14:23.318Z,41.00
2022-10-08T17:16:51.881Z,53.00
2022-10-08T17:19:20.356Z,51.50
2022-10-08T17:21:48.575Z,31.00
2022-10-08T17:24:16.846Z,36.50
2022-10-08T17:26:45.012Z,37.00
2022-10-08T17:29:13.216Z,53.00
2022-10-08T17:31:42.131Z,52.00
2022-10-08T17:34:11.962Z,158.50
2022-10-08T17:36:42.897Z,145.00
2022-10-08T17:39:13.547Z,97.50
2022-10-08T17:41:43.301Z,91.50
2022-10-08T17:44:12.083Z,77.33
2022-10-08T17:46:43.962Z,76.00
2022-10-08T17:49:13.889Z,73.00
2022-10-08T17:51:42.567Z,70.00
2022-10-08T17:54:19.985Z,70.00
2022-10-08T17:56:48.779Z,77.00
2022-10-08T17:59:18.627Z,60.00
2022-10-08T18:01:46.969Z,78.50
2022-10-08T18:04:17.163Z,78.33
2022-10-08T18:06:46.941Z,85.00
2022-10-08T18:09:18.691Z,65.00
2022-10-08T18:11:51.107Z,86.00
2022-10-08T18:14:20.811Z,81.50
2022-10-08T18:16:49.195Z,85.50
2022-10-08T18:19:18.656Z,75.00
2022-10-08T18:21:47.248Z,82.00
2022-10-08T18:24:16.834Z,68.00
2022-10-08T18:26:45.118Z,75.00
2022-10-08T18:29:14.906Z,78.50
2022-10-08T18:31:44.485Z,71.00
2022-10-08T18:34:16.832Z,63.00
2022-10-08T18:36:46.053Z,75.00
2022-10-08T18:39:20.745Z,66.00
2022-10-08T18:41:51.459Z,67.00
2022-10-08T18:44:22.892Z,65.00
2022-10-08T18:46:51.823Z,72.00
2022-10-08T18:49:24.506Z,59.00
2022-10-08T18:51:52.764Z,60.00
2022-10-08T18:54:21.165Z,62.00
2022-10-08T18:56:49.395Z,62.67
2022-10-08T18:59:17.936Z,66.00
2022-10-08T19:01:47.819Z,67.50
2022-10-08T19:04:18.316Z,66.00
2022-10-08T19:06:48.239Z,60.50
2022-10-08T19:09:17.066Z,49.00
2022-10-08T19:11:50.583Z,44.50
2022-10-08T19:14:21.290Z,62.00
2022-10-08T19:16:49.938Z,52.00
2022-10-08T19:19:23.152Z,59.50
2022-10-08T19:21:52.300Z,55.50
2022-10-08T19:24:24.110Z,63.00
2022-10-08T19:26:53.622Z,65.50
2022-10-08T19:29:25.480Z,62.00
2022-10-08T19:31:53.725Z,51.00
2022-10-08T19:34:24.905Z,51.00
2022-10-08T19:36:56.460Z,55.50
2022-10-08T19:39:27.772Z,54.00
2022-10-08T19:41:56.054Z,60.00
2022-10-08T19:44:24.817Z,61.00
2022-10-08T19:46:52.943Z,59.50
2022-10-08T19:49:22.455Z,55.00
2022-10-08T19:51:50.631Z,67.00
2022-10-08T19:54:19.037Z,58.00
2022-10-08T19:56:47.380Z,59.67
2022-10-08T19:59:15.697Z,54.00
2022-10-08T20:01:45.042Z,59.00
2022-10-08T20:04:14.339Z,55.67
2022-10-08T20:06:43.512Z,54.50
2022-10-08T20:09:13.572Z,54.50
2022-10-08T20:11:45.718Z,62.00
2022-10-08T20:14:14.998Z,49.50
2022-10-08T20:16:43.936Z,50.50
2022-10-08T20:19:18.167Z,53.50
2022-10-08T20:21:47.652Z,55.50
2022-10-08T20:24:17.485Z,59.00
2022-10-08T20:26:46.378Z,57.00
2022-10-08T20:29:18.074Z,50.50
2022-10-08T20:31:49.771Z,53.50
2022-10-08T20:34:23.946Z,53.67
2022-10-08T20:36:52.377Z,53.00
2022-10-08T20:39:22.151Z,55.00
2022-10-08T20:41:51.850Z,50.00
2022-10-08T20:44:21.306Z,44.00
2022-10-08T20:46:50.868Z,51.00
2022-10-08T20:49:19.268Z,52.00
2022-10-08T20:51:47.670Z,49.00
2022-10-08T20:54:17.212Z,49.00
2022-10-08T20:56:45.608Z,49.50
2022-10-08T20:59:18.596Z,51.50
2022-10-08T21:01:47.405Z,53.00
2022-10-08T21:04:15.827Z,39.00
2022-10-08T21:06:49.470Z,44.00
2022-10-08T21:09:19.678Z,48.50
2022-10-08T21:11:48.426Z,50.00
2022-10-08T21:14:21.755Z,47.33
2022-10-08T21:16:50.205Z,47.00
2022-10-08T21:19:22.203Z,49.00
2022-10-08T21:21:50.901Z,44.00
2022-10-08T21:24:19.244Z,48.00
2022-10-08T21:26:47.531Z,43.00
2022-10-08T21:29:15.823Z,44.00
2022-10-08T21:31:44.262Z,45.50
2022-10-08T21:34:13.444Z,45.00
2022-10-08T21:36:42.382Z,42.50
2022-10-08T21:39:15.495Z,44.00
2022-10-08T21:41:43.922Z,45.50
2022-10-08T21:44:12.097Z,49.00
2022-10-08T21:46:42.279Z,41.00
2022-10-08T21:49:15.981Z,45.50
2022-10-08T21:51:44.923Z,47.00
2022-10-08T21:54:13.955Z,41.00
2022-10-08T21:56:42.779Z,38.00
2022-10-08T21:59:13.987Z,49.00
2022-10-08T22:01:47.727Z,46.00
2022-10-08T22:04:24.222Z,36.50
2022-10-08T22:07:02.062Z,41.00
2022-10-08T22:09:32.535Z,39.00
2022-10-08T22:12:02.003Z,33.00
2022-10-08T22:14:30.282Z,38.00
2022-10-08T22:16:58.392Z,40.00
2022-10-08T22:19:26.653Z,37.00
2022-10-08T22:21:55.108Z,45.00
2022-10-08T22:24:23.221Z,39.50
2022-10-08T22:26:51.370Z,32.00
2022-10-08T22:29:19.787Z,30.00
2022-10-08T22:31:48.019Z,33.00
2022-10-08T22:34:16.211Z,38.00
2022-10-08T22:36:44.829Z,45.00
2022-10-08T22:39:13.303Z,32.00
2022-10-08T22:41:41.806Z,34.00
2022-10-08T22:44:09.979Z,41.00
2022-10-08T22:46:39.639Z,36.00
2022-10-08T22:49:10.809Z,27.00
2022-10-08T22:51:39.091Z,37.00
2022-10-08T22:54:07.877Z,37.50
2022-10-08T22:56:36.167Z,36.50
2022-10-08T22:59:04.494Z,33.50
2022-10-08T23:01:32.641Z,36.00
2022-10-08T23:04:00.848Z,40.00
2022-10-08T23:06:31.955Z,38.00
2022-10-08T23:09:02.568Z,34.50
2022-10-08T23:11:34.714Z,34.00
2022-10-08T23:14:02.971Z,37.00
2022-10-08T23:16:32.447Z,41.00
2022-10-08T23:19:07.430Z,35.00
2022-10-08T23:21:36.639Z,42.50
2022-10-08T23:24:05.808Z,31.50
2022-10-08T23:26:34.196Z,32.50
2022-10-08T23:29:03.453Z,30.00
2022-10-08T23:31:34.787Z,31.00
2022-10-08T23:34:03.998Z,35.50
2022-10-08T23:36:43.521Z,36.00
2022-10-08T23:39:14.918Z,30.00
2022-10-08T23:41:43.500Z,31.00
2022-10-08T23:44:12.325Z,26.00
2022-10-08T23:46:40.525Z,27.00
2022-10-08T23:49:08.746Z,30.00
2022-10-08T23:51:37.074Z,24.00
2022-10-08T23:54:05.491Z,31.00
2022-10-08T23:56:33.810Z,30.50
2022-10-08T23:59:01.960Z,31.00
